Time;durP1;ratioP1;P1;durP2;ratioP2;P2;SDS_P1;SDS_P2;PMS_P1;PMS_P2;Temp;Humidity;BMP_temperature;BMP_pressure;BME280_temperature;BME280_humidity;BME280_pressure;Samples;Min_cycle;Max_cycle;Signal;HPM_P1;HPM_P2
2024/01/06 00:00:24;;;;;;;21.65;10.02;;;;;;;5.20;72.40;91359.38;2065145;69;20133;-80
2024/01/06 00:02:49;;;;;;;20.05;10.77;;;;;;;5.21;73.70;91355.97;2064927;69;20584;-79
2024/01/06 00:05:16;;;;;;;24.02;10.80;;;;;;;5.06;74.27;91357.19;2064914;69;20229;-80
2024/01/06 00:07:42;;;;;;;20.85;12.18;;;;;;;5.08;74.64;91351.00;2061655;69;20248;-80
2024/01/06 00:10:08;;;;;;;30.75;12.00;;;;;;;5.10;74.81;91337.91;2066221;69;20680;-80
2024/01/06 00:12:34;;;;;;;19.98;10.63;;;;;;;5.09;75.36;91341.31;2068606;69;20173;-79
2024/01/06 00:15:01;;;;;;;25.08;11.00;;;;;;;5.06;75.13;91337.69;2068263;69;20210;-79
2024/01/06 00:17:26;;;;;;;17.63;9.05;;;;;;;5.05;74.83;91335.50;2068304;69;20151;-81
2024/01/06 00:19:52;;;;;;;13.20;6.75;;;;;;;5.02;74.84;91342.28;2068229;69;20145;-81
2024/01/06 00:22:19;;;;;;;11.48;6.55;;;;;;;4.69;76.51;91340.38;2068207;69;20129;-79
2024/01/06 00:24:44;;;;;;;12.98;6.38;;;;;;;4.80;75.91;91336.13;2065658;69;20165;-78
2024/01/06 00:27:10;;;;;;;11.77;7.05;;;;;;;4.79;76.21;91340.25;2064691;69;20173;-81
2024/01/06 00:29:35;;;;;;;14.80;7.35;;;;;;;4.66;76.73;91335.28;2065272;69;20159;-80
2024/01/06 00:32:01;;;;;;;11.48;6.40;;;;;;;4.75;76.00;91329.56;2065390;69;20619;-81
2024/01/06 00:34:27;;;;;;;15.25;7.72;;;;;;;4.82;75.96;91333.47;2065309;69;20157;-81
2024/01/06 00:36:52;;;;;;;13.90;7.13;;;;;;;4.81;76.19;91332.75;2065325;69;20157;-81
2024/01/06 00:39:20;;;;;;;20.10;8.82;;;;;;;4.71;76.41;91336.97;2065086;69;20254;-81
2024/01/06 00:41:45;;;;;;;14.43;7.88;;;;;;;4.76;76.32;91339.38;2065289;69;20151;-81
2024/01/06 00:44:12;;;;;;;13.00;7.07;;;;;;;4.59;76.92;91334.91;2067671;69;20227;-81
2024/01/06 00:46:39;;;;;;;12.13;6.78;;;;;;;4.55;77.14;91347.88;2069412;69;20618;-80
2024/01/06 00:49:05;;;;;;;14.45;7.43;;;;;;;4.62;77.03;91340.59;2069652;69;20132;-80
2024/01/06 00:51:31;;;;;;;13.68;6.78;;;;;;;4.66;76.54;91338.06;2064659;69;20183;-79
2024/01/06 00:53:57;;;;;;;11.82;6.53;;;;;;;4.43;77.16;91345.06;2066057;69;20523;-81
2024/01/06 00:56:22;;;;;;;10.45;5.80;;;;;;;4.47;77.39;91347.38;2066185;69;20141;-80
2024/01/06 00:58:48;;;;;;;9.05;5.45;;;;;;;4.56;76.93;91350.06;2066485;69;20144;-80
2024/01/06 01:01:14;;;;;;;12.50;6.53;;;;;;;4.46;77.28;91352.22;2066076;69;20192;-79
2024/01/06 01:03:39;;;;;;;11.02;5.80;;;;;;;4.56;76.92;91347.25;2062105;69;20138;-81
2024/01/06 01:06:05;;;;;;;11.43;5.80;;;;;;;4.61;76.88;91355.88;2065722;69;20254;-79
2024/01/06 01:08:31;;;;;;;11.32;6.05;;;;;;;4.60;76.58;91357.94;2065166;69;20149;-80
2024/01/06 01:10:57;;;;;;;10.75;6.03;;;;;;;4.42;76.31;91354.03;2059066;69;20194;-81
2024/01/06 01:13:25;;;;;;;13.63;5.65;;;;;;;4.46;76.45;91343.16;2065463;69;20137;-80
2024/01/06 01:15:51;;;;;;;13.32;6.45;;;;;;;4.57;76.04;91354.28;2061778;69;20133;-80
2024/01/06 01:18:16;;;;;;;10.07;6.00;;;;;;;4.52;76.72;91355.38;2067204;69;20151;-79
2024/01/06 01:20:42;;;;;;;10.18;6.25;;;;;;;4.48;76.47;91346.78;2068481;69;20144;-81
2024/01/06 01:23:08;;;;;;;8.80;5.70;;;;;;;4.50;76.21;91355.25;2065380;69;20148;-80
2024/01/06 01:25:34;;;;;;;10.15;5.90;;;;;;;4.49;76.37;91350.28;2061574;69;20168;-80
2024/01/06 01:28:00;;;;;;;12.13;5.82;;;;;;;4.46;74.79;91354.28;2065213;69;20145;-81
2024/01/06 01:30:26;;;;;;;8.90;6.00;;;;;;;4.43;76.21;91356.22;2061745;69;20188;-81
2024/01/06 01:32:52;;;;;;;11.23;6.28;;;;;;;4.43;76.08;91356.22;2061940;69;20498;-80
2024/01/06 01:35:17;;;;;;;10.23;6.10;;;;;;;4.35;76.26;91361.28;2064867;69;20235;-81
2024/01/06 01:37:43;;;;;;;10.20;5.65;;;;;;;4.38;75.97;91362.16;2065433;69;20145;-79
2024/01/06 01:40:09;;;;;;;10.63;5.75;;;;;;;4.32;75.65;91357.66;2064788;69;20230;-80
2024/01/06 01:42:35;;;;;;;8.48;5.40;;;;;;;4.32;75.60;91354.88;2065288;69;20149;-80
2024/01/06 01:45:00;;;;;;;10.57;5.50;;;;;;;4.29;75.83;91364.44;2065220;69;20152;-80
2024/01/06 01:47:26;;;;;;;7.88;5.45;;;;;;;4.28;75.96;91362.25;2065278;69;20145;-80
2024/01/06 01:49:56;;;;;;;9.52;5.47;;;;;;;4.23;75.94;91361.28;2061795;69;20160;-81
2024/01/06 01:52:22;;;;;;;9.43;5.30;;;;;;;4.19;75.67;91363.09;2065238;69;20616;-81
2024/01/06 01:54:48;;;;;;;8.43;4.95;;;;;;;4.16;76.04;91361.50;2061394;69;20153;-79
2024/01/06 01:57:15;;;;;;;10.23;5.18;;;;;;;4.18;75.78;91358.84;2065223;69;20211;-80
2024/01/06 01:59:41;;;;;;;7.13;4.75;;;;;;;4.14;75.83;91358.59;2065128;69;20189;-79
2024/01/06 02:02:09;;;;;;;8.80;5.22;;;;;;;4.12;75.88;91364.75;2065248;69;20141;-79
2024/01/06 02:04:35;;;;;;;7.80;4.93;;;;;;;4.08;75.75;91368.03;2059157;69;20161;-80
2024/01/06 02:07:00;;;;;;;9.80;4.75;;;;;;;4.04;75.88;91353.13;2063799;69;20168;-84
2024/01/06 02:09:29;;;;;;;8.68;5.28;;;;;;;4.00;76.23;91364.00;2064025;69;20208;-81
2024/01/06 02:11:58;;;;;;;7.57;4.70;;;;;;;3.96;76.19;91361.69;2064799;69;20234;-81
2024/01/06 02:14:23;;;;;;;8.80;4.97;;;;;;;3.99;76.40;91365.34;2064706;69;20176;-80
2024/01/06 02:16:50;;;;;;;8.27;5.15;;;;;;;3.71;76.80;91367.03;2064552;69;20188;-82
2024/01/06 02:19:17;;;;;;;6.18;4.82;;;;;;;3.89;76.60;91367.47;2064383;69;20600;-82
2024/01/06 02:21:44;;;;;;;7.55;5.18;;;;;;;3.86;76.76;91369.41;2061659;69;20155;-80
2024/01/06 02:24:10;;;;;;;5.72;4.63;;;;;;;3.91;76.47;91378.75;2058729;69;20154;-81
2024/01/06 02:26:36;;;;;;;7.68;5.30;;;;;;;3.87;76.24;91373.63;2055531;69;20178;-80
2024/01/06 02:29:01;;;;;;;7.10;4.97;;;;;;;3.91;76.28;91378.75;2058380;69;20161;-81
2024/01/06 02:31:27;;;;;;;7.43;5.07;;;;;;;3.91;76.25;91373.19;2057724;69;20145;-81
2024/01/06 02:33:53;;;;;;;8.23;5.00;;;;;;;3.80;76.75;91363.44;2060325;69;20149;-81
2024/01/06 02:36:19;;;;;;;6.07;4.80;;;;;;;3.86;76.53;91360.34;2059326;69;20153;-82
2024/01/06 02:38:46;;;;;;;7.07;4.70;;;;;;;3.88;76.49;91372.31;2060222;69;20233;-81
2024/01/06 02:41:12;;;;;;;7.05;5.07;;;;;;;3.83;76.44;91370.59;2057110;69;20251;-81
2024/01/06 02:43:37;;;;;;;6.82;4.78;;;;;;;3.86;75.81;91365.91;2058226;69;20162;-81
2024/01/06 02:46:05;;;;;;;7.32;4.50;;;;;;;3.82;76.09;91355.94;2058305;69;20649;-80
2024/01/06 02:48:32;;;;;;;8.77;5.28;;;;;;;3.83;76.36;91368.53;2057697;69;20153;-81
2024/01/06 02:50:58;;;;;;;7.47;5.03;;;;;;;3.79;76.45;91390.56;2058136;69;20134;-81
2024/01/06 02:53:24;;;;;;;6.65;5.15;;;;;;;3.67;76.89;91389.78;2059777;69;20169;-81
2024/01/06 02:55:49;;;;;;;8.93;5.53;;;;;;;3.74;76.54;91380.47;2058301;69;20150;-81
2024/01/06 02:58:15;;;;;;;8.07;5.18;;;;;;;3.80;76.66;91382.91;2058199;69;20152;-81
2024/01/06 03:00:41;;;;;;;7.15;5.20;;;;;;;3.86;76.41;91380.53;2058285;69;20184;-80
2024/01/06 03:03:06;;;;;;;8.82;4.80;;;;;;;3.86;76.29;91385.38;2058474;69;20157;-81
2024/01/06 03:05:32;;;;;;;7.60;5.00;;;;;;;3.81;76.55;91387.19;2057744;69;20156;-79
2024/01/06 03:07:58;;;;;;;7.40;5.20;;;;;;;3.82;76.34;91383.06;2058254;69;20154;-79
2024/01/06 03:10:23;;;;;;;7.68;5.22;;;;;;;3.80;76.70;91377.34;2058083;69;20168;-81
2024/01/06 03:12:49;;;;;;;7.03;5.03;;;;;;;3.77;76.64;91382.06;2057385;69;20157;-80
2024/01/06 03:15:15;;;;;;;7.28;5.35;;;;;;;3.75;76.70;91372.84;2053248;69;20193;-80
2024/01/06 03:17:40;;;;;;;6.88;5.10;;;;;;;3.78;76.54;91364.03;2056948;69;20169;-81
2024/01/06 03:20:07;;;;;;;8.25;5.45;;;;;;;3.85;76.36;91362.38;2057319;69;20136;-80
2024/01/06 03:22:34;;;;;;;8.07;5.50;;;;;;;3.83;76.69;91365.03;2064204;69;20643;-80
2024/01/06 03:25:00;;;;;;;7.07;5.03;;;;;;;3.77;76.57;91361.88;2060997;69;20141;-82
2024/01/06 03:27:27;;;;;;;7.38;5.22;;;;;;;3.76;76.79;91371.56;2066085;69;20273;-80
2024/01/06 03:29:53;;;;;;;8.52;5.85;;;;;;;3.70;76.96;91371.16;2062815;69;20149;-80
2024/01/06 03:32:19;;;;;;;7.38;5.55;;;;;;;3.80;75.85;91366.97;2064876;69;20144;-82
2024/01/06 03:34:48;;;;;;;9.05;5.85;;;;;;;3.82;76.67;91371.94;2061276;69;20160;-81
2024/01/06 03:37:14;;;;;;;6.20;5.03;;;;;;;3.74;76.46;91374.91;2064985;69;20551;-81
2024/01/06 03:39:40;;;;;;;8.38;5.38;;;;;;;3.70;76.00;91371.88;2064688;69;20148;-82
2024/01/06 03:42:06;;;;;;;8.18;5.72;;;;;;;3.81;76.36;91393.47;2064917;69;20253;-81
2024/01/06 03:44:33;;;;;;;8.68;5.47;;;;;;;3.83;75.87;91390.09;2064582;69;20588;-81
2024/01/06 03:46:59;;;;;;;7.68;5.93;;;;;;;3.81;76.43;91387.19;2064566;69;20633;-81
2024/01/06 03:49:25;;;;;;;7.75;5.70;;;;;;;3.84;76.40;91391.53;2061130;69;20160;-81
2024/01/06 03:51:53;;;;;;;8.20;5.57;;;;;;;3.76;76.72;91379.91;2064770;69;20142;-80
2024/01/06 03:54:18;;;;;;;7.85;5.68;;;;;;;3.83;76.40;91382.47;2060564;69;20177;-81
2024/01/06 03:56:47;;;;;;;8.57;6.10;;;;;;;3.77;76.65;91375.78;2060229;69;20141;-82
2024/01/06 03:59:12;;;;;;;8.80;5.68;;;;;;;3.82;76.46;91383.78;2061048;69;20145;-81
2024/01/06 04:01:38;;;;;;;8.18;5.75;;;;;;;3.82;76.19;91380.28;2064701;69;20496;-81
2024/01/06 04:04:07;;;;;;;8.60;5.95;;;;;;;3.81;76.73;91385.13;2064745;69;20172;-80
2024/01/06 04:06:32;;;;;;;9.13;6.60;;;;;;;3.71;77.10;91384.47;2065090;69;20137;-81
2024/01/06 04:08:58;;;;;;;8.27;5.95;;;;;;;3.83;76.26;91390.81;2061585;69;20608;-82
2024/01/06 04:11:24;;;;;;;7.72;6.13;;;;;;;3.86;76.44;91391.69;2060971;69;20519;-81
2024/01/06 04:13:51;;;;;;;8.05;5.82;;;;;;;3.81;76.69;91399.03;2061951;69;20240;-79
2024/01/06 04:16:20;;;;;;;10.13;6.38;;;;;;;3.84;75.93;91397.09;2061488;69;20141;-80
2024/01/06 04:18:46;;;;;;;11.07;6.43;;;;;;;3.62;76.69;91404.78;2064687;69;20141;-81
2024/01/06 04:21:14;;;;;;;8.85;6.15;;;;;;;3.76;76.17;91402.16;2065098;69;20219;-82
2024/01/06 04:23:43;;;;;;;9.55;5.63;;;;;;;3.79;76.69;91392.59;2064554;69;20195;-82
2024/01/06 04:26:09;;;;;;;11.43;6.20;;;;;;;3.73;76.69;91390.16;2061265;69;20168;-82
2024/01/06 04:28:38;;;;;;;11.85;6.22;;;;;;;3.73;76.98;91403.34;2068255;69;20196;-81
2024/01/06 04:31:05;;;;;;;10.23;6.68;;;;;;;3.75;77.32;91404.19;2068479;69;20168;-81
2024/01/06 04:33:32;;;;;;;10.00;6.18;;;;;;;3.70;76.95;91390.63;2068199;69;20527;-81
2024/01/06 04:35:58;;;;;;;11.77;6.70;;;;;;;3.56;77.76;91409.91;2064249;69;20141;-81
2024/01/06 04:38:24;;;;;;;10.95;7.00;;;;;;;2.96;80.06;91410.16;2065600;69;20164;-81
2024/01/06 04:40:50;;;;;;;14.40;7.20;;;;;;;3.34;79.48;91405.69;2068478;69;20493;-81
2024/01/06 04:43:17;;;;;;;10.32;6.65;;;;;;;3.57;78.61;91414.16;2065339;69;20596;-80
2024/01/06 04:45:43;;;;;;;9.68;6.72;;;;;;;3.67;78.00;91402.97;2068554;69;20153;-81
2024/01/06 04:48:11;;;;;;;10.85;6.93;;;;;;;3.64;78.16;91401.38;2066848;69;20694;-81
2024/01/06 04:50:43;;;;;;;11.10;7.13;;;;;;;3.69;77.97;91403.09;2059555;69;20258;-80
2024/01/06 04:53:09;;;;;;;11.88;7.35;;;;;;;3.66;77.96;91407.06;2063557;69;20155;-82
2024/01/06 04:55:37;;;;;;;10.13;6.68;;;;;;;3.64;78.19;91412.50;2065382;69;20604;-81
2024/01/06 04:58:02;;;;;;;10.07;6.50;;;;;;;3.70;77.82;91416.41;2064916;69;20156;-80
2024/01/06 05:00:28;;;;;;;10.07;7.03;;;;;;;3.77;77.46;91421.06;2064557;69;20137;-81
2024/01/06 05:02:55;;;;;;;8.77;6.30;;;;;;;3.75;77.29;91429.25;2064188;69;20612;-80
2024/01/06 05:05:21;;;;;;;12.70;7.68;;;;;;;3.64;77.74;91429.94;2060910;69;20157;-80
2024/01/06 05:07:50;;;;;;;9.82;7.05;;;;;;;3.67;76.99;91423.19;2064503;69;20248;-80
2024/01/06 05:10:15;;;;;;;12.38;7.88;;;;;;;3.76;77.28;91421.66;2065060;69;20190;-81
2024/01/06 05:12:41;;;;;;;11.02;7.57;;;;;;;3.77;77.54;91420.31;2064385;69;20164;-81
2024/01/06 05:15:07;;;;;;;15.95;9.85;;;;;;;3.75;77.27;91420.19;2064952;69;20201;-81
2024/01/06 05:17:35;;;;;;;13.88;9.48;;;;;;;3.69;77.63;91431.66;2061582;69;20180;-81
2024/01/06 05:20:01;;;;;;;8.35;5.97;;;;;;;3.76;77.65;91441.88;2061797;69;20144;-81
2024/01/06 05:22:28;;;;;;;5.57;4.07;;;;;;;3.77;77.41;91445.38;2064543;69;20651;-81
2024/01/06 05:24:54;;;;;;;7.25;4.78;;;;;;;3.45;78.43;91450.28;2065635;69;20608;-81
2024/01/06 05:27:20;;;;;;;10.57;7.63;;;;;;;3.33;79.14;91441.13;2065461;69;20203;-81
2024/01/06 05:29:46;;;;;;;15.27;8.25;;;;;;;3.37;79.00;91444.16;2060925;69;20616;-82
2024/01/06 05:32:13;;;;;;;11.02;7.07;;;;;;;3.58;78.64;91440.69;2063824;69;20172;-83
2024/01/06 05:34:38;;;;;;;11.02;6.63;;;;;;;3.66;78.46;91451.59;2065713;69;20239;-82
2024/01/06 05:37:06;;;;;;;8.65;6.43;;;;;;;3.71;78.09;91442.94;2061007;69;20162;-82
2024/01/06 05:39:32;;;;;;;13.75;7.40;;;;;;;3.76;77.71;91447.44;2064685;69;20161;-82
2024/01/06 05:41:58;;;;;;;11.38;7.20;;;;;;;3.69;78.03;91439.28;2061314;69;20140;-82
2024/01/06 05:44:24;;;;;;;9.73;5.82;;;;;;;3.71;77.67;91454.06;2065027;69;20144;-81
2024/01/06 05:46:50;;;;;;;11.73;7.68;;;;;;;3.33;79.25;91457.06;2064464;69;20159;-81
2024/01/06 05:49:18;;;;;;;14.95;8.82;;;;;;;3.25;79.81;91457.25;2064928;69;20164;-81
2024/01/06 05:51:55;;;;;;;12.27;7.10;;;;;;;3.57;78.73;91453.13;2059340;69;20527;-81
2024/01/06 05:54:21;;;;;;;17.90;10.80;;;;;;;3.64;78.73;91451.47;2064785;69;20168;-81
2024/01/06 05:56:47;;;;;;;18.92;11.73;;;;;;;3.70;78.08;91454.66;2066176;69;20629;-80
2024/01/06 05:59:14;;;;;;;17.73;10.55;;;;;;;3.70;78.26;91458.16;2060586;69;20207;-81
2024/01/06 06:01:40;;;;;;;16.73;9.68;;;;;;;3.63;78.37;91456.31;2064148;69;20214;-80
2024/01/06 06:04:06;;;;;;;17.27;9.88;;;;;;;3.70;77.98;91460.22;2064500;69;20153;-80
2024/01/06 06:06:32;;;;;;;18.17;9.63;;;;;;;3.68;78.42;91458.03;2060359;69;20157;-80
2024/01/06 06:09:06;;;;;;;14.88;9.15;;;;;;;3.80;78.01;91469.22;2063999;69;20641;-80
2024/01/06 06:11:33;;;;;;;18.67;8.80;;;;;;;3.74;77.48;91460.47;2062620;69;20177;-79
2024/01/06 06:13:59;;;;;;;16.65;9.35;;;;;;;3.74;77.77;91471.63;2062726;69;20141;-79
2024/01/06 06:16:24;;;;;;;15.80;8.90;;;;;;;3.73;77.98;91462.53;2064105;69;20168;-79
2024/01/06 06:18:50;;;;;;;18.35;8.90;;;;;;;3.77;77.97;91468.38;2065345;69;20153;-80
2024/01/06 06:21:16;;;;;;;12.65;7.10;;;;;;;3.74;78.26;91471.63;2064239;69;20242;-79
2024/01/06 06:23:41;;;;;;;9.55;5.78;;;;;;;3.77;77.96;91473.22;2064570;69;20551;-79
2024/01/06 06:26:08;;;;;;;6.65;4.13;;;;;;;3.75;77.16;91475.84;2064258;69;20176;-79
2024/01/06 06:28:34;;;;;;;7.63;4.50;;;;;;;3.52;78.13;91479.22;2063810;69;20161;-81
2024/01/06 06:31:01;;;;;;;13.73;7.47;;;;;;;3.45;79.25;91472.53;2064104;69;20205;-81
2024/01/06 06:33:27;;;;;;;14.35;7.97;;;;;;;3.41;79.63;91480.59;2065079;69;20164;-80
2024/01/06 06:35:52;;;;;;;15.98;7.97;;;;;;;3.57;78.67;91475.38;2064261;69;20200;-80
2024/01/06 06:38:18;;;;;;;16.13;8.85;;;;;;;3.61;78.34;91478.44;2064986;69;20187;-81
2024/01/06 06:40:47;;;;;;;15.13;8.70;;;;;;;3.59;78.82;91480.38;2064678;69;20558;-80
2024/01/06 06:43:14;;;;;;;13.18;8.15;;;;;;;3.66;78.67;91485.00;2063482;69;20254;-82
2024/01/06 06:45:39;;;;;;;19.75;8.10;;;;;;;3.72;78.16;91490.97;2063584;69;20220;-80
2024/01/06 06:48:06;;;;;;;11.32;7.50;;;;;;;3.67;78.77;91492.03;2064557;69;20168;-81
2024/01/06 06:50:32;;;;;;;14.77;7.93;;;;;;;3.73;78.42;91495.22;2061048;69;20613;-80
2024/01/06 06:53:00;;;;;;;15.60;8.10;;;;;;;3.71;78.49;91504.16;2061794;69;20272;-86
2024/01/06 06:55:27;;;;;;;13.88;7.90;;;;;;;3.71;77.59;91501.38;2061361;69;20164;-80
2024/01/06 06:57:53;;;;;;;14.57;8.00;;;;;;;3.64;78.90;91509.91;2064882;69;20183;-80
2024/01/06 07:00:19;;;;;;;15.85;8.00;;;;;;;3.74;78.50;91522.44;2064512;69;20156;-79
2024/01/06 07:02:45;;;;;;;14.20;7.60;;;;;;;3.72;78.53;91522.31;2061478;69;20176;-82
2024/01/06 07:05:11;;;;;;;13.95;7.05;;;;;;;3.65;78.71;91514.88;2064845;69;20195;-80
2024/01/06 07:07:37;;;;;;;11.63;6.80;;;;;;;3.75;78.32;91523.16;2064867;69;20156;-79
2024/01/06 07:10:05;;;;;;;15.18;7.50;;;;;;;3.80;78.41;91527.69;2064859;69;20172;-79
2024/01/06 07:12:31;;;;;;;12.52;7.43;;;;;;;3.74;78.39;91527.28;2065231;69;20612;-79
2024/01/06 07:14:58;;;;;;;18.55;8.20;;;;;;;3.77;78.46;91528.88;2066681;69;20239;-79
2024/01/06 07:17:24;;;;;;;20.52;8.95;;;;;;;3.75;78.55;91534.31;2065597;69;20240;-79
2024/01/06 07:19:50;;;;;;;15.85;9.10;;;;;;;3.75;78.73;91534.31;2065027;69;20156;-80
2024/01/06 07:22:19;;;;;;;11.93;8.25;;;;;;;3.75;78.07;91526.69;2064757;69;20176;-79
2024/01/06 07:24:45;;;;;;;16.35;8.32;;;;;;;3.76;78.19;91521.88;2066109;69;20184;-80
2024/01/06 07:27:12;;;;;;;11.25;7.53;;;;;;;3.76;78.77;91524.66;2060691;69;20236;-78
2024/01/06 07:29:38;;;;;;;10.45;7.40;;;;;;;3.66;79.14;91527.47;2061124;69;20153;-79
2024/01/06 07:32:08;;;;;;;13.25;7.57;;;;;;;3.72;78.98;91530.66;2061265;69;20302;-79
2024/01/06 07:34:34;;;;;;;16.30;8.85;;;;;;;3.67;78.96;91534.50;2064819;69;20141;-79
2024/01/06 07:37:00;;;;;;;17.13;9.05;;;;;;;3.67;79.04;91528.22;2056853;69;20160;-80
2024/01/06 07:39:26;;;;;;;21.63;9.73;;;;;;;3.76;79.01;91533.72;2064747;69;20513;-78
2024/01/06 07:41:51;;;;;;;17.85;10.35;;;;;;;3.72;78.69;91533.44;2064596;69;20160;-78
2024/01/06 07:44:22;;;;;;;17.00;10.05;;;;;;;3.74;78.70;91544.72;2061001;69;20157;-78
2024/01/06 07:46:48;;;;;;;16.75;10.48;;;;;;;3.67;79.15;91545.66;2065056;69;20152;-79
2024/01/06 07:49:15;;;;;;;16.23;10.02;;;;;;;3.72;79.05;91544.59;2064748;69;20153;-79
2024/01/06 07:51:41;;;;;;;15.70;9.68;;;;;;;3.70;79.18;91544.44;2061582;69;20157;-78
2024/01/06 07:54:09;;;;;;;18.60;10.40;;;;;;;3.79;79.04;91545.72;2064931;69;20141;-79
2024/01/06 07:56:35;;;;;;;19.13;10.48;;;;;;;3.77;79.06;91540.75;2061572;69;20160;-78
2024/01/06 07:59:02;;;;;;;15.45;10.50;;;;;;;3.86;78.84;91539.22;2060891;69;20145;-78
2024/01/06 08:01:27;;;;;;;21.05;13.38;;;;;;;3.94;78.53;91548.13;2064909;69;20220;-79
2024/01/06 08:03:53;;;;;;;22.77;13.70;;;;;;;3.96;77.66;91551.03;2061262;69;20557;-79
2024/01/06 08:06:20;;;;;;;20.27;10.48;;;;;;;3.98;77.96;91551.16;2065057;69;20169;-81
2024/01/06 08:08:45;;;;;;;17.27;9.70;;;;;;;3.92;78.22;91550.75;2064873;69;20168;-79
2024/01/06 08:11:13;;;;;;;17.25;9.90;;;;;;;3.97;78.13;91555.25;2061429;69;20159;-79
2024/01/06 08:13:38;;;;;;;14.30;9.15;;;;;;;4.01;76.68;91566.69;2064483;69;20144;-79
2024/01/06 08:16:05;;;;;;;13.90;9.30;;;;;;;4.03;76.76;91558.47;2064887;69;20145;-79
2024/01/06 08:18:31;;;;;;;16.35;9.65;;;;;;;4.00;78.06;91564.50;2064735;69;20601;-80
2024/01/06 08:20:57;;;;;;;13.63;9.38;;;;;;;4.03;77.95;91566.06;2064435;69;20157;-79
2024/01/06 08:23:27;;;;;;;13.48;9.57;;;;;;;4.03;78.12;91571.63;2064920;69;20188;-79
2024/01/06 08:25:53;;;;;;;13.68;9.20;;;;;;;4.01;78.11;91569.47;2061147;69;20695;-79
2024/01/06 08:28:19;;;;;;;16.30;10.57;;;;;;;3.85;78.55;91559.28;2061347;69;20219;-78
2024/01/06 08:30:46;;;;;;;18.17;11.48;;;;;;;3.90;78.35;91572.91;2064650;69;20165;-79
2024/01/06 08:33:12;;;;;;;29.95;15.23;;;;;;;3.71;79.47;91581.34;2064649;69;20152;-78
2024/01/06 08:35:40;;;;;;;27.40;13.48;;;;;;;3.82;79.28;91572.38;2064394;69;20152;-79
2024/01/06 08:38:07;;;;;;;22.50;12.50;;;;;;;3.92;78.86;91569.53;2064598;69;20137;-79
2024/01/06 08:40:33;;;;;;;24.17;14.13;;;;;;;3.98;78.86;91579.00;2064763;69;20145;-79
2024/01/06 08:43:01;;;;;;;44.05;23.05;;;;;;;3.89;78.91;91590.19;2064778;69;20307;-80
2024/01/06 08:45:27;;;;;;;56.53;28.75;;;;;;;3.83;79.10;91590.53;2064757;69;20164;-79
2024/01/06 08:47:54;;;;;;;51.47;25.70;;;;;;;3.77;79.51;91587.34;2064645;69;20140;-79
2024/01/06 08:50:21;;;;;;;34.75;20.80;;;;;;;3.63;79.36;91605.88;2064646;69;20239;-80
2024/01/06 08:52:46;;;;;;;30.85;19.35;;;;;;;3.34;81.05;91603.91;2064942;69;20224;-79
2024/01/06 08:55:12;;;;;;;34.35;21.02;;;;;;;3.45;81.30;91606.06;2065389;69;20133;-79
2024/01/06 08:57:38;;;;;;;35.70;21.38;;;;;;;3.34;81.43;91600.41;2065417;69;20177;-79
2024/01/06 09:00:05;;;;;;;30.27;19.15;;;;;;;3.47;80.75;91606.19;2065302;69;20553;-79
2024/01/06 09:02:31;;;;;;;27.10;16.27;;;;;;;3.42;80.70;91603.75;2061636;69;20199;-79
2024/01/06 09:05:01;;;;;;;30.20;17.33;;;;;;;3.21;81.36;91618.31;2061468;69;20243;-79
2024/01/06 09:07:27;;;;;;;43.30;19.13;;;;;;;2.87;84.06;91627.72;2065249;69;20591;-79
2024/01/06 09:09:53;;;;;;;34.90;18.83;;;;;;;3.46;81.10;91629.78;2065244;69;20145;-79
2024/01/06 09:12:20;;;;;;;55.75;28.52;;;;;;;3.35;81.44;91624.84;2065452;69;20520;-79
2024/01/06 09:14:46;;;;;;;65.45;36.35;;;;;;;3.42;81.55;91639.91;2065074;69;20148;-79
2024/01/06 09:17:12;;;;;;;49.90;27.35;;;;;;;3.47;81.19;91631.25;2061900;69;20160;-79
2024/01/06 09:19:37;;;;;;;45.08;25.38;;;;;;;3.61;80.29;91628.72;2061611;69;20152;-79
2024/01/06 09:22:04;;;;;;;41.88;23.45;;;;;;;3.71;80.10;91621.06;2064566;69;20324;-79
2024/01/06 09:24:29;;;;;;;36.75;20.77;;;;;;;3.81;79.82;91626.59;2061589;69;20278;-79
2024/01/06 09:26:55;;;;;;;31.85;18.60;;;;;;;3.80;78.49;91628.66;2065434;69;20172;-78
2024/01/06 09:29:21;;;;;;;33.15;19.63;;;;;;;3.85;78.87;91624.09;2058867;69;20161;-79
2024/01/06 09:31:46;;;;;;;37.17;20.73;;;;;;;3.88;79.09;91624.94;2062064;69;20137;-79
2024/01/06 09:34:12;;;;;;;36.55;19.27;;;;;;;3.75;79.24;91628.94;2065100;69;20141;-79
2024/01/06 09:36:38;;;;;;;34.05;19.13;;;;;;;3.87;79.27;91629.03;2064831;69;20678;-79
2024/01/06 09:39:04;;;;;;;32.83;19.48;;;;;;;3.71;78.66;91629.41;2065086;69;20149;-80
2024/01/06 09:41:31;;;;;;;32.70;19.23;;;;;;;3.87;78.64;91627.00;2065257;69;20141;-79
2024/01/06 09:43:56;;;;;;;32.20;18.95;;;;;;;3.94;78.96;91620.53;2064956;69;20227;-80
2024/01/06 09:46:29;;;;;;;33.03;19.98;;;;;;;3.78;79.26;91627.75;2065117;69;20141;-79
2024/01/06 09:48:56;;;;;;;54.20;24.02;;;;;;;3.88;79.20;91622.16;2065050;69;20173;-79
2024/01/06 09:51:23;;;;;;;48.15;21.38;;;;;;;3.81;78.38;91624.53;2064899;69;20145;-79
2024/01/06 09:53:56;;;;;;;35.78;20.23;;;;;;;3.90;78.94;91625.09;2064916;69;20141;-79
2024/01/06 09:56:26;;;;;;;40.60;20.23;;;;;;;3.95;79.21;91618.47;2061459;69;20145;-79
2024/01/06 09:58:52;;;;;;;33.50;18.13;;;;;;;4.02;78.95;91614.75;2065200;69;20141;-79
2024/01/06 10:01:18;;;;;;;30.35;17.60;;;;;;;4.02;79.00;91615.47;2061416;69;20161;-79
2024/01/06 10:03:46;;;;;;;33.40;17.42;;;;;;;4.10;78.45;91609.72;2065033;69;20167;-79
2024/01/06 10:06:16;;;;;;;30.50;17.40;;;;;;;4.01;78.59;91611.22;2064667;69;20149;-78
2024/01/06 10:08:44;;;;;;;31.38;17.92;;;;;;;3.67;79.48;91608.94;2064808;69;20155;-79
2024/01/06 10:11:10;;;;;;;30.75;19.05;;;;;;;3.30;80.69;91621.06;2065010;69;20156;-79
2024/01/06 10:13:38;;;;;;;34.03;20.23;;;;;;;3.03;82.93;91624.06;2065114;69;20160;-79
2024/01/06 10:16:07;;;;;;;33.42;20.00;;;;;;;3.50;82.01;91613.38;2065267;69;20180;-79
2024/01/06 10:18:35;;;;;;;33.10;18.73;;;;;;;3.73;80.72;91618.41;2065032;69;20164;-80
2024/01/06 10:21:05;;;;;;;33.65;18.88;;;;;;;3.50;81.29;91621.00;2064813;69;20608;-80
2024/01/06 10:23:32;;;;;;;33.90;19.58;;;;;;;3.46;81.86;91609.59;2064413;69;20601;-80
2024/01/06 10:25:58;;;;;;;32.38;18.70;;;;;;;3.60;81.38;91610.56;2064816;69;20247;-80
2024/01/06 10:28:23;;;;;;;36.58;20.60;;;;;;;3.75;80.26;91603.88;2061496;69;20216;-80
2024/01/06 10:30:56;;;;;;;41.03;23.02;;;;;;;3.49;81.54;91603.56;2064471;69;20139;-79
2024/01/06 10:33:43;;;;;;;37.78;22.42;;;;;;;3.88;80.25;91603.38;2062069;69;20161;-80
2024/01/06 10:36:09;;;;;;;38.15;22.10;;;;;;;3.94;80.02;91612.16;2061661;69;20202;-79
2024/01/06 10:38:35;;;;;;;37.60;21.48;;;;;;;3.98;79.80;91611.69;2061519;69;20173;-79
2024/01/06 10:41:06;;;;;;;37.00;21.30;;;;;;;4.01;79.20;91614.03;2061280;69;20149;-80
2024/01/06 10:43:38;;;;;;;37.47;21.95;;;;;;;3.90;78.97;91611.91;2061163;69;20137;-80
2024/01/06 10:46:04;;;;;;;32.25;19.20;;;;;;;3.55;80.73;91615.13;2065072;69;20169;-80
2024/01/06 10:48:35;;;;;;;29.73;17.38;;;;;;;3.87;79.57;91615.84;2058015;69;20589;-79
2024/01/06 10:51:09;;;;;;;26.70;16.58;;;;;;;3.75;79.92;91604.63;2064913;69;20149;-80
2024/01/06 10:53:39;;;;;;;23.55;15.95;;;;;;;3.77;79.79;91607.56;2064943;69;20145;-79
2024/01/06 10:56:07;;;;;;;28.30;16.27;;;;;;;3.97;79.08;91608.19;2061088;69;20169;-80
2024/01/06 10:58:37;;;;;;;25.67;15.77;;;;;;;3.73;79.33;91603.75;2064793;69;20180;-80
2024/01/06 11:01:03;;;;;;;27.00;16.13;;;;;;;3.86;79.19;91608.84;2065080;69;20203;-79
2024/01/06 11:03:30;;;;;;;24.35;15.45;;;;;;;3.56;80.68;91605.44;2064580;69;20218;-77
2024/01/06 11:05:58;;;;;;;23.90;14.32;;;;;;;3.97;78.42;91599.81;2064946;69;20215;-78
2024/01/06 11:08:26;;;;;;;21.05;14.20;;;;;;;3.48;79.65;91602.13;2061523;69;20153;-78
2024/01/06 11:10:53;;;;;;;21.92;13.75;;;;;;;3.74;79.91;91594.81;2065031;69;20137;-79
2024/01/06 11:13:23;;;;;;;21.02;13.77;;;;;;;3.89;79.22;91601.34;2065021;69;20147;-78
2024/01/06 11:15:52;;;;;;;19.90;12.80;;;;;;;4.05;78.12;91588.50;2061200;69;20149;-78
2024/01/06 11:18:45;;;;;;;20.38;12.77;;;;;;;3.97;78.60;91585.91;2064628;69;20197;-78
2024/01/06 11:21:28;;;;;;;20.13;13.25;;;;;;;4.07;78.52;91575.41;2064492;69;20152;-79
2024/01/06 11:24:06;;;;;;;;;;;;;;;4.12;78.22;91581.25;2064841;69;20141;-79
2024/01/06 11:26:32;;;;;;;22.55;14.38;;;;;;;4.14;77.71;91570.28;2064935;69;20049;-79
2024/01/06 11:29:00;;;;;;;24.45;15.00;;;;;;;4.10;77.83;91579.09;2064667;69;20214;-79
2024/01/06 11:31:30;;;;;;;22.17;13.68;;;;;;;3.98;78.34;91581.06;2064950;69;20185;-79